Bighorn, Montana
Current Conditions -  °F | °C
As of 10:53 AM on Thursday 30 Oct 2014 (Local Time) from KBIL Reporting Station
Few Clouds Few Clouds  
Wind Chill:   Ceiling: Unl
Heat Index:   Visibility: 10mi
Dew Point: -2°   Wind: 9mph
Humidity: 50%   Direction: 210°SSW
Pressure: 30.32"   Gusts: NA
Location:  46.16°N, 107.45°W
Report Text: KBIL 301653Z 21008KT 10SM FEW095 FEW240 08/M02 A3032 RMK AO2 SLP276 T00781022
Loading
Personal Weather Stations






























Interactive Weather Map
Tropical Storm Tracking
New forecast layout! Learn more

10-Day Weather Forecast

Advertisements
Track Severe Weather on mobile